createdAt,value
2023-05-14T00:00:19.245Z,391.00
2023-05-14T00:00:49.337Z,391.00
2023-05-14T00:01:19.471Z,391.00
2023-05-14T00:01:49.613Z,392.00
2023-05-14T00:02:19.605Z,393.00
2023-05-14T00:02:49.787Z,394.00
2023-05-14T00:03:19.860Z,393.00
2023-05-14T00:03:49.868Z,394.00
2023-05-14T00:04:19.886Z,394.00
2023-05-14T00:04:49.872Z,394.00
2023-05-14T00:05:19.985Z,392.00
2023-05-14T00:05:50.093Z,388.00
2023-05-14T00:06:20.220Z,388.00
2023-05-14T00:06:50.221Z,387.00
2023-05-14T00:07:20.214Z,389.00
2023-05-14T00:07:50.316Z,387.00
2023-05-14T00:08:20.431Z,388.00
2023-05-14T00:08:50.534Z,387.00
2023-05-14T00:09:20.658Z,386.00
2023-05-14T00:09:50.765Z,388.00
2023-05-14T00:10:21.064Z,389.00
2023-05-14T00:10:51.014Z,389.00
2023-05-14T00:11:21.027Z,391.00
2023-05-14T00:11:51.011Z,392.00
2023-05-14T00:12:21.120Z,391.00
2023-05-14T00:12:51.242Z,392.00
2023-05-14T00:13:21.248Z,394.00
2023-05-14T00:13:51.343Z,393.00
2023-05-14T00:14:21.451Z,391.00
2023-05-14T00:14:51.560Z,388.00
2023-05-14T00:15:21.673Z,389.00
2023-05-14T00:15:51.853Z,388.00
2023-05-14T00:16:21.864Z,390.00
2023-05-14T00:16:51.895Z,390.00
2023-05-14T00:17:21.988Z,390.00
2023-05-14T00:17:52.101Z,390.00
2023-05-14T00:18:22.033Z,389.00
2023-05-14T00:18:52.226Z,389.00
2023-05-14T00:19:22.243Z,390.00
2023-05-14T00:19:52.344Z,391.00
2023-05-14T00:20:22.625Z,392.00
2023-05-14T00:20:52.563Z,393.00
2023-05-14T00:21:22.548Z,393.00
2023-05-14T00:21:52.659Z,393.00
2023-05-14T00:22:22.771Z,393.00
2023-05-14T00:22:52.887Z,393.00
2023-05-14T00:23:23.043Z,393.00
2023-05-14T00:23:53.012Z,393.00
2023-05-14T00:24:23.119Z,394.00
2023-05-14T00:24:53.251Z,395.00
2023-05-14T00:25:23.246Z,395.00
2023-05-14T00:25:53.245Z,394.00
2023-05-14T00:26:23.343Z,395.00
2023-05-14T00:26:53.475Z,395.00
2023-05-14T00:27:23.571Z,394.00
2023-05-14T00:27:53.699Z,393.00
2023-05-14T00:28:23.806Z,393.00
2023-05-14T00:28:53.797Z,394.00
2023-05-14T00:29:23.927Z,394.00
2023-05-14T00:29:53.919Z,395.00
2023-05-14T00:30:24.066Z,394.00
2023-05-14T00:30:54.012Z,395.00
2023-05-14T00:31:24.082Z,395.00
2023-05-14T00:31:54.160Z,394.00
2023-05-14T00:32:24.156Z,394.00
2023-05-14T00:32:54.243Z,394.00
2023-05-14T00:33:24.328Z,393.00
2023-05-14T00:33:54.409Z,393.00
2023-05-14T00:34:24.480Z,392.00
2023-05-14T00:34:54.553Z,392.00
2023-05-14T00:35:24.638Z,391.00
2023-05-14T00:35:54.734Z,391.00
2023-05-14T00:36:24.808Z,390.00
2023-05-14T00:36:54.875Z,392.00
2023-05-14T00:37:24.946Z,393.00
2023-05-14T00:37:55.033Z,392.00
2023-05-14T00:38:25.094Z,395.00
2023-05-14T00:38:55.171Z,395.00
2023-05-14T00:39:25.254Z,397.00
2023-05-14T00:39:55.314Z,397.00
2023-05-14T00:40:25.614Z,399.00
2023-05-14T00:40:55.459Z,399.00
2023-05-14T00:41:25.536Z,398.00
2023-05-14T00:41:55.611Z,398.00
2023-05-14T00:42:25.709Z,399.00
2023-05-14T00:42:55.821Z,398.00
2023-05-14T00:43:25.947Z,397.00
2023-05-14T00:43:56.069Z,395.00
2023-05-14T00:44:26.053Z,393.00
2023-05-14T00:44:56.181Z,393.00
2023-05-14T00:45:26.287Z,393.00
2023-05-14T00:45:56.400Z,392.00
2023-05-14T00:46:26.552Z,393.00
2023-05-14T00:46:56.564Z,392.00
2023-05-14T00:47:26.660Z,391.00
2023-05-14T00:47:56.711Z,392.00
2023-05-14T00:48:26.703Z,393.00
2023-05-14T00:48:56.690Z,395.00
2023-05-14T00:49:26.817Z,396.00
2023-05-14T00:49:56.900Z,396.00
2023-05-14T00:50:27.137Z,395.00
2023-05-14T00:50:57.020Z,393.00
2023-05-14T00:51:27.136Z,392.00
2023-05-14T00:51:57.247Z,390.00
2023-05-14T00:52:27.356Z,392.00
2023-05-14T00:52:57.382Z,393.00
2023-05-14T00:53:27.356Z,396.00
2023-05-14T00:53:57.484Z,398.00
2023-05-14T00:54:27.471Z,398.00
2023-05-14T00:54:57.581Z,397.00
2023-05-14T00:55:27.698Z,396.00
2023-05-14T00:55:57.809Z,396.00
2023-05-14T00:56:27.914Z,396.00
2023-05-14T00:56:58.030Z,397.00
2023-05-14T00:57:28.148Z,397.00
2023-05-14T00:57:58.162Z,398.00
2023-05-14T00:58:28.139Z,398.00
2023-05-14T00:58:58.256Z,399.00
2023-05-14T00:59:28.364Z,399.00
2023-05-14T00:59:58.553Z,398.00
2023-05-14T01:00:28.507Z,398.00
2023-05-14T01:00:58.655Z,396.00
2023-05-14T01:01:28.832Z,396.00
2023-05-14T01:01:58.757Z,397.00
2023-05-14T01:02:28.810Z,396.00
2023-05-14T01:02:58.892Z,396.00
2023-05-14T01:03:29.059Z,394.00
2023-05-14T01:03:59.123Z,393.00
2023-05-14T01:04:29.086Z,391.00
2023-05-14T01:04:59.188Z,393.00
2023-05-14T01:05:29.301Z,393.00
2023-05-14T01:05:59.418Z,394.00
2023-05-14T01:06:29.527Z,396.00
2023-05-14T01:06:59.659Z,397.00
2023-05-14T01:07:29.676Z,399.00
2023-05-14T01:07:59.637Z,397.00
2023-05-14T01:08:29.750Z,399.00
2023-05-14T01:08:59.860Z,400.00
2023-05-14T01:09:29.973Z,399.00
2023-05-14T01:10:00.178Z,399.00
2023-05-14T01:10:30.162Z,400.00
2023-05-14T01:11:00.274Z,399.00
2023-05-14T01:11:30.406Z,400.00
2023-05-14T01:12:00.598Z,400.00
2023-05-14T01:12:30.582Z,398.00
2023-05-14T01:13:00.703Z,399.00
2023-05-14T01:13:30.708Z,401.00
2023-05-14T01:14:00.813Z,402.00
2023-05-14T01:14:30.922Z,401.00
2023-05-14T01:15:01.048Z,401.00
2023-05-14T01:15:31.152Z,400.00
2023-05-14T01:16:01.299Z,399.00
2023-05-14T01:16:31.325Z,399.00
2023-05-14T01:17:01.364Z,399.00
2023-05-14T01:17:31.519Z,398.00
2023-05-14T01:18:01.578Z,398.00
2023-05-14T01:18:31.605Z,397.00
2023-05-14T01:19:01.654Z,397.00
2023-05-14T01:19:31.664Z,396.00
2023-05-14T01:20:01.776Z,398.00
2023-05-14T01:20:31.900Z,399.00
2023-05-14T01:21:01.901Z,398.00
2023-05-14T01:21:31.888Z,399.00
2023-05-14T01:22:02.002Z,402.00
2023-05-14T01:22:32.117Z,403.00
2023-05-14T01:23:02.229Z,405.00
2023-05-14T01:23:32.357Z,404.00
2023-05-14T01:24:02.454Z,401.00
2023-05-14T01:24:32.560Z,401.00
2023-05-14T01:25:02.698Z,401.00
2023-05-14T01:25:32.686Z,399.00
2023-05-14T01:26:02.670Z,399.00
2023-05-14T01:26:32.777Z,398.00
2023-05-14T01:27:02.909Z,397.00
2023-05-14T01:27:33.002Z,399.00
2023-05-14T01:28:03.120Z,401.00
2023-05-14T01:28:33.218Z,401.00
2023-05-14T01:29:03.332Z,403.00
2023-05-14T01:29:33.439Z,402.00
2023-05-14T01:30:03.576Z,402.00
2023-05-14T01:30:33.569Z,403.00
2023-05-14T01:31:03.669Z,402.00
2023-05-14T01:31:33.826Z,401.00
2023-05-14T01:32:03.910Z,401.00
2023-05-14T01:32:33.896Z,402.00
2023-05-14T01:33:04.078Z,403.00
2023-05-14T01:33:34.053Z,405.00
2023-05-14T01:34:04.124Z,404.00
2023-05-14T01:34:34.220Z,403.00
2023-05-14T01:35:04.370Z,404.00
2023-05-14T01:35:34.288Z,403.00
2023-05-14T01:36:04.368Z,403.00
2023-05-14T01:36:34.453Z,405.00
2023-05-14T01:37:04.525Z,407.00
2023-05-14T01:37:34.599Z,407.00
2023-05-14T01:38:04.685Z,407.00
2023-05-14T01:38:34.740Z,408.00
2023-05-14T01:39:04.822Z,409.00
2023-05-14T01:39:34.899Z,408.00
2023-05-14T01:40:04.982Z,407.00
2023-05-14T01:40:35.049Z,407.00
2023-05-14T01:41:05.141Z,407.00
2023-05-14T01:41:35.223Z,408.00
2023-05-14T01:42:05.279Z,408.00
2023-05-14T01:42:35.395Z,407.00
2023-05-14T01:43:05.532Z,407.00
2023-05-14T01:43:35.599Z,407.00
2023-05-14T01:44:05.607Z,409.00
2023-05-14T01:44:35.584Z,408.00
2023-05-14T01:45:05.702Z,404.00
2023-05-14T01:45:35.819Z,404.00
2023-05-14T01:46:05.856Z,405.00
2023-05-14T01:46:35.934Z,410.00
2023-05-14T01:47:05.936Z,406.00
2023-05-14T01:47:36.084Z,403.00
2023-05-14T01:48:06.107Z,408.00
2023-05-14T01:48:36.114Z,408.00
2023-05-14T01:49:06.093Z,406.00
2023-05-14T01:49:36.079Z,406.00
2023-05-14T01:50:06.194Z,405.00
2023-05-14T01:50:36.302Z,406.00
2023-05-14T01:51:06.416Z,404.00
2023-05-14T01:51:36.526Z,404.00
2023-05-14T01:52:06.638Z,405.00
2023-05-14T01:52:36.743Z,405.00
2023-05-14T01:53:07.120Z,405.00
2023-05-14T01:53:36.983Z,406.00
2023-05-14T01:54:06.964Z,405.00
2023-05-14T01:54:37.072Z,406.00
2023-05-14T01:55:07.203Z,405.00
2023-05-14T01:55:37.172Z,404.00
2023-05-14T01:56:07.280Z,404.00
2023-05-14T01:56:37.396Z,405.00
2023-05-14T01:57:07.510Z,403.00
2023-05-14T01:57:37.625Z,402.00
2023-05-14T01:58:07.745Z,403.00
2023-05-14T01:58:37.724Z,403.00
2023-05-14T01:59:07.845Z,401.00
2023-05-14T01:59:37.966Z,401.00
2023-05-14T02:00:08.063Z,401.00
2023-05-14T02:00:38.177Z,400.00
2023-05-14T02:01:08.321Z,401.00
2023-05-14T02:01:38.394Z,401.00
2023-05-14T02:02:08.425Z,401.00
2023-05-14T02:02:38.556Z,401.00
2023-05-14T02:03:08.640Z,401.00
2023-05-14T02:03:38.612Z,402.00
2023-05-14T02:04:08.673Z,402.00
2023-05-14T02:04:38.664Z,401.00
2023-05-14T02:05:08.770Z,401.00
2023-05-14T02:05:38.886Z,400.00
2023-05-14T02:06:09.002Z,399.00
2023-05-14T02:06:39.112Z,399.00
2023-05-14T02:07:09.236Z,399.00
2023-05-14T02:07:39.226Z,399.00
2023-05-14T02:08:09.211Z,399.00
2023-05-14T02:08:39.326Z,399.00
2023-05-14T02:09:09.433Z,399.00
2023-05-14T02:09:39.545Z,398.00
2023-05-14T02:10:09.653Z,397.00
2023-05-14T02:10:39.762Z,399.00
2023-05-14T02:11:09.878Z,398.00
2023-05-14T02:11:40.011Z,399.00
2023-05-14T02:12:10.005Z,399.00
2023-05-14T02:12:40.022Z,396.00
2023-05-14T02:13:09.988Z,394.00
2023-05-14T02:13:40.105Z,391.00
2023-05-14T02:14:10.219Z,392.00
2023-05-14T02:14:40.328Z,392.00
2023-05-14T02:15:10.444Z,389.00
2023-05-14T02:15:40.572Z,391.00
2023-05-14T02:16:10.650Z,390.00
2023-05-14T02:16:40.748Z,389.00
2023-05-14T02:17:10.717Z,390.00
2023-05-14T02:17:40.895Z,392.00
2023-05-14T02:18:10.896Z,395.00
2023-05-14T02:18:41.031Z,395.00
2023-05-14T02:19:11.056Z,396.00
2023-05-14T02:19:41.089Z,396.00
2023-05-14T02:20:11.080Z,397.00
2023-05-14T02:20:41.179Z,399.00
2023-05-14T02:21:11.317Z,399.00
2023-05-14T02:21:41.324Z,399.00
2023-05-14T02:22:11.299Z,400.00
2023-05-14T02:22:41.410Z,399.00
2023-05-14T02:23:11.518Z,400.00
2023-05-14T02:23:42.294Z,401.00
2023-05-14T02:24:11.696Z,402.00
2023-05-14T02:24:41.805Z,403.00
2023-05-14T02:25:11.916Z,404.00
2023-05-14T02:25:42.056Z,405.00
2023-05-14T02:26:12.065Z,404.00
2023-05-14T02:26:42.079Z,404.00
2023-05-14T02:27:12.051Z,403.00
2023-05-14T02:27:42.171Z,402.00
2023-05-14T02:28:12.235Z,402.00
2023-05-14T02:28:42.349Z,403.00
2023-05-14T02:29:12.456Z,402.00
2023-05-14T02:29:42.584Z,400.00
2023-05-14T02:30:12.686Z,400.00
2023-05-14T02:30:42.798Z,399.00
2023-05-14T02:31:12.846Z,399.00
2023-05-14T02:31:42.861Z,398.00
2023-05-14T02:32:12.889Z,398.00
2023-05-14T02:32:43.011Z,398.00
2023-05-14T02:33:13.030Z,396.00
2023-05-14T02:33:42.978Z,396.00
2023-05-14T02:34:12.952Z,397.00
2023-05-14T02:34:43.047Z,396.00
2023-05-14T02:35:13.141Z,397.00
2023-05-14T02:35:43.210Z,398.00
2023-05-14T02:36:13.278Z,400.00
2023-05-14T02:36:43.352Z,400.00
2023-05-14T02:37:13.448Z,402.00
2023-05-14T02:37:43.491Z,403.00
2023-05-14T02:38:13.572Z,401.00
2023-05-14T02:38:43.643Z,400.00
2023-05-14T02:39:13.715Z,400.00
2023-05-14T02:39:43.795Z,401.00
2023-05-14T02:40:13.879Z,401.00
2023-05-14T02:40:43.949Z,400.00
2023-05-14T02:41:14.027Z,399.00
2023-05-14T02:41:44.104Z,399.00
2023-05-14T02:42:14.184Z,400.00
2023-05-14T02:42:44.296Z,398.00
2023-05-14T02:43:14.403Z,396.00
2023-05-14T02:43:44.531Z,397.00
2023-05-14T02:44:14.633Z,395.00
2023-05-14T02:44:44.654Z,395.00
2023-05-14T02:45:14.639Z,396.00
2023-05-14T02:45:44.747Z,395.00
2023-05-14T02:46:14.911Z,395.00
2023-05-14T02:46:44.919Z,396.00
2023-05-14T02:47:14.890Z,394.00
2023-05-14T02:47:45.011Z,394.00
2023-05-14T02:48:15.109Z,396.00
2023-05-14T02:48:45.224Z,396.00
2023-05-14T02:49:15.366Z,398.00
2023-05-14T02:49:45.362Z,399.00
2023-05-14T02:50:15.499Z,401.00
2023-05-14T02:50:45.483Z,400.00
2023-05-14T02:51:15.575Z,401.00
2023-05-14T02:51:45.700Z,401.00
2023-05-14T02:52:15.808Z,400.00
2023-05-14T02:52:45.920Z,400.00
2023-05-14T02:53:16.028Z,399.00
2023-05-14T02:53:46.148Z,398.00
2023-05-14T02:54:16.150Z,400.00
2023-05-14T02:54:46.137Z,400.00
2023-05-14T02:55:16.250Z,399.00
2023-05-14T02:55:46.374Z,400.00
2023-05-14T02:56:16.362Z,402.00
2023-05-14T02:56:46.489Z,401.00
2023-05-14T02:57:16.596Z,401.00
2023-05-14T02:57:46.700Z,401.00
2023-05-14T02:58:16.825Z,402.00
2023-05-14T02:58:46.839Z,401.00
2023-05-14T02:59:16.818Z,401.00
2023-05-14T02:59:46.887Z,401.00
2023-05-14T03:00:16.972Z,401.00
2023-05-14T03:00:47.042Z,401.00
2023-05-14T03:01:17.065Z,399.00
2023-05-14T03:01:47.171Z,400.00
2023-05-14T03:02:17.343Z,402.00
2023-05-14T03:02:47.361Z,401.00
2023-05-14T03:03:17.452Z,401.00
2023-05-14T03:03:47.438Z,403.00
2023-05-14T03:04:17.475Z,402.00
2023-05-14T03:04:47.593Z,401.00
2023-05-14T03:05:17.699Z,402.00
2023-05-14T03:05:47.831Z,402.00
2023-05-14T03:06:17.924Z,400.00
2023-05-14T03:06:48.032Z,400.00
2023-05-14T03:07:18.150Z,400.00
2023-05-14T03:07:48.271Z,400.00
2023-05-14T03:08:18.261Z,400.00
2023-05-14T03:08:48.255Z,399.00
2023-05-14T03:09:18.359Z,396.00
2023-05-14T03:09:48.476Z,394.00
2023-05-14T03:10:18.587Z,396.00
2023-05-14T03:10:48.695Z,392.00
2023-05-14T03:11:18.810Z,392.00
2023-05-14T03:11:48.921Z,392.00
2023-05-14T03:12:19.056Z,389.00
2023-05-14T03:12:49.052Z,388.00
2023-05-14T03:13:19.159Z,390.00
2023-05-14T03:13:49.276Z,393.00
2023-05-14T03:14:19.396Z,395.00
2023-05-14T03:14:49.500Z,396.00
2023-05-14T03:15:19.621Z,398.00
2023-05-14T03:15:49.732Z,398.00
2023-05-14T03:16:19.888Z,397.00
2023-05-14T03:16:49.967Z,397.00
2023-05-14T03:17:19.924Z,397.00
2023-05-14T03:17:49.946Z,398.00
2023-05-14T03:18:19.944Z,397.00
2023-05-14T03:18:50.087Z,395.00
2023-05-14T03:19:20.072Z,395.00
2023-05-14T03:19:50.187Z,396.00
2023-05-14T03:20:20.299Z,395.00
2023-05-14T03:20:50.439Z,395.00
2023-05-14T03:21:20.527Z,394.00
2023-05-14T03:21:50.671Z,394.00
2023-05-14T03:22:20.656Z,396.00
2023-05-14T03:22:50.762Z,396.00
2023-05-14T03:23:20.894Z,395.00
2023-05-14T03:23:50.992Z,394.00
2023-05-14T03:24:21.096Z,395.00
2023-05-14T03:24:51.207Z,395.00
2023-05-14T03:25:21.321Z,395.00
2023-05-14T03:25:51.446Z,394.00
2023-05-14T03:26:21.581Z,395.00
2023-05-14T03:26:51.574Z,393.00
2023-05-14T03:27:21.692Z,393.00
2023-05-14T03:27:51.798Z,393.00
2023-05-14T03:28:21.908Z,394.00
2023-05-14T03:28:52.035Z,392.00
2023-05-14T03:29:22.136Z,392.00
2023-05-14T03:29:52.246Z,393.00
2023-05-14T03:30:22.549Z,393.00
2023-05-14T03:30:52.425Z,394.00
2023-05-14T03:31:22.442Z,395.00
2023-05-14T03:31:52.408Z,396.00
2023-05-14T03:32:22.518Z,394.00
2023-05-14T03:32:52.700Z,397.00
2023-05-14T03:33:22.679Z,396.00
2023-05-14T03:33:52.738Z,395.00
2023-05-14T03:34:22.806Z,396.00
2023-05-14T03:34:52.881Z,398.00
2023-05-14T03:35:22.963Z,398.00
2023-05-14T03:35:53.088Z,398.00
2023-05-14T03:36:23.133Z,397.00
2023-05-14T03:36:53.200Z,397.00
2023-05-14T03:37:23.275Z,395.00
2023-05-14T03:37:53.344Z,396.00
2023-05-14T03:38:23.418Z,395.00
2023-05-14T03:38:53.490Z,396.00
2023-05-14T03:39:23.569Z,398.00
2023-05-14T03:39:53.631Z,399.00
2023-05-14T03:40:24.004Z,399.00
2023-05-14T03:40:53.729Z,398.00
2023-05-14T03:41:23.803Z,396.00
2023-05-14T03:41:53.888Z,396.00
2023-05-14T03:42:23.982Z,394.00
2023-05-14T03:42:54.095Z,393.00
2023-05-14T03:43:24.216Z,395.00
2023-05-14T03:43:54.325Z,396.00
2023-05-14T03:44:24.436Z,397.00
2023-05-14T03:44:54.562Z,398.00
2023-05-14T03:45:24.684Z,400.00
2023-05-14T03:45:54.683Z,401.00
2023-05-14T03:46:24.771Z,399.00
2023-05-14T03:46:54.897Z,397.00
2023-05-14T03:47:25.026Z,396.00
2023-05-14T03:47:55.089Z,396.00
2023-05-14T03:48:25.181Z,396.00
2023-05-14T03:48:55.162Z,396.00
2023-05-14T03:49:25.183Z,397.00
2023-05-14T03:49:55.178Z,398.00
2023-05-14T03:50:25.525Z,396.00
2023-05-14T03:50:55.190Z,397.00
2023-05-14T03:51:25.309Z,398.00
2023-05-14T03:51:55.395Z,398.00
2023-05-14T03:52:25.509Z,397.00
2023-05-14T03:52:55.613Z,395.00
2023-05-14T03:53:25.728Z,395.00
2023-05-14T03:53:55.843Z,392.00
2023-05-14T03:54:25.967Z,391.00
2023-05-14T03:54:55.954Z,390.00
2023-05-14T03:55:26.060Z,390.00
2023-05-14T03:55:56.180Z,390.00
2023-05-14T03:56:26.305Z,392.00
2023-05-14T03:56:56.403Z,390.00
2023-05-14T03:57:26.392Z,390.00
2023-05-14T03:57:56.508Z,388.00
2023-05-14T03:58:26.643Z,390.00
2023-05-14T03:58:56.734Z,389.00
2023-05-14T03:59:26.842Z,389.00
2023-05-14T03:59:56.848Z,388.00
2023-05-14T04:00:27.008Z,386.00
2023-05-14T04:00:56.910Z,387.00
2023-05-14T04:01:27.026Z,388.00
2023-05-14T04:01:57.133Z,389.00
2023-05-14T04:02:27.321Z,388.00
2023-05-14T04:02:57.362Z,390.00
2023-05-14T04:03:27.562Z,391.00
2023-05-14T04:03:57.473Z,390.00
2023-05-14T04:04:27.550Z,391.00
2023-05-14T04:04:57.575Z,389.00
2023-05-14T04:05:27.616Z,391.00
2023-05-14T04:05:57.726Z,390.00
2023-05-14T04:06:27.839Z,390.00
2023-05-14T04:06:57.978Z,388.00
2023-05-14T04:07:28.078Z,390.00
2023-05-14T04:07:58.192Z,389.00
2023-05-14T04:08:28.192Z,390.00
2023-05-14T04:08:58.181Z,391.00
2023-05-14T04:09:28.291Z,391.00
2023-05-14T04:09:58.404Z,390.00
2023-05-14T04:10:28.522Z,390.00
2023-05-14T04:10:58.627Z,391.00
2023-05-14T04:11:28.740Z,392.00
2023-05-14T04:11:58.863Z,393.00
2023-05-14T04:12:28.956Z,392.00
2023-05-14T04:12:59.074Z,390.00
2023-05-14T04:13:29.061Z,387.00
2023-05-14T04:13:59.170Z,387.00
2023-05-14T04:14:29.280Z,390.00
2023-05-14T04:14:59.397Z,392.00
2023-05-14T04:15:29.541Z,391.00
2023-05-14T04:15:59.507Z,390.00
2023-05-14T04:16:29.687Z,390.00
2023-05-14T04:17:00.387Z,389.00
2023-05-14T04:17:29.761Z,389.00
2023-05-14T04:17:59.763Z,388.00
2023-05-14T04:18:29.826Z,390.00
2023-05-14T04:18:59.876Z,391.00
2023-05-14T04:19:29.841Z,393.00
2023-05-14T04:19:59.830Z,393.00
2023-05-14T04:20:29.934Z,393.00
2023-05-14T04:21:00.054Z,393.00
2023-05-14T04:21:30.162Z,392.00
2023-05-14T04:22:00.301Z,393.00
2023-05-14T04:22:30.310Z,393.00
2023-05-14T04:23:00.267Z,392.00
2023-05-14T04:23:30.380Z,393.00
2023-05-14T04:24:00.506Z,392.00
2023-05-14T04:24:30.605Z,392.00
2023-05-14T04:25:00.715Z,393.00
2023-05-14T04:25:30.821Z,394.00
2023-05-14T04:26:00.938Z,393.00
2023-05-14T04:26:31.070Z,392.00
2023-05-14T04:27:01.065Z,393.00
2023-05-14T04:27:31.049Z,392.00
2023-05-14T04:28:01.190Z,391.00
2023-05-14T04:28:31.153Z,390.00
2023-05-14T04:29:01.263Z,390.00
2023-05-14T04:29:31.381Z,391.00
2023-05-14T04:30:01.489Z,391.00
2023-05-14T04:30:31.609Z,393.00
2023-05-14T04:31:01.725Z,395.00
2023-05-14T04:31:31.909Z,397.00
2023-05-14T04:32:01.918Z,398.00
2023-05-14T04:32:32.024Z,397.00
2023-05-14T04:33:02.026Z,397.00
2023-05-14T04:33:31.973Z,397.00
2023-05-14T04:34:02.049Z,396.00
2023-05-14T04:34:32.157Z,394.00
2023-05-14T04:35:02.227Z,396.00
2023-05-14T04:35:32.302Z,397.00
2023-05-14T04:36:02.388Z,398.00
2023-05-14T04:36:32.483Z,400.00
2023-05-14T04:37:02.546Z,398.00
2023-05-14T04:37:32.621Z,399.00
2023-05-14T04:38:02.717Z,401.00
2023-05-14T04:38:32.760Z,402.00
2023-05-14T04:39:02.834Z,401.00
2023-05-14T04:39:32.901Z,403.00
2023-05-14T04:40:02.981Z,402.00
2023-05-14T04:40:33.082Z,400.00
2023-05-14T04:41:03.162Z,399.00
2023-05-14T04:41:33.243Z,398.00
2023-05-14T04:42:03.312Z,398.00
2023-05-14T04:42:33.436Z,398.00
2023-05-14T04:43:03.540Z,399.00
2023-05-14T04:43:33.655Z,400.00
2023-05-14T04:44:03.776Z,402.00
2023-05-14T04:44:33.888Z,401.00
2023-05-14T04:45:04.006Z,402.00
2023-05-14T04:45:34.487Z,403.00
2023-05-14T04:46:04.151Z,405.00
2023-05-14T04:46:34.349Z,404.00
2023-05-14T04:47:04.164Z,405.00
2023-05-14T04:47:34.350Z,406.00
2023-05-14T04:48:04.470Z,405.00
2023-05-14T04:48:34.496Z,405.00
2023-05-14T04:49:04.605Z,404.00
2023-05-14T04:49:34.730Z,402.00
2023-05-14T04:50:04.873Z,403.00
2023-05-14T04:50:34.857Z,404.00
2023-05-14T04:51:06.952Z,403.00
2023-05-14T04:51:34.893Z,402.00
2023-05-14T04:52:05.013Z,403.00
2023-05-14T04:52:35.120Z,404.00
2023-05-14T04:53:05.263Z,401.00
2023-05-14T04:53:35.349Z,400.00
2023-05-14T04:54:05.511Z,401.00
2023-05-14T04:54:35.520Z,400.00
2023-05-14T04:55:05.554Z,401.00
2023-05-14T04:55:35.536Z,403.00
2023-05-14T04:56:05.645Z,404.00
2023-05-14T04:56:35.778Z,404.00
2023-05-14T04:57:05.872Z,404.00
2023-05-14T04:57:35.999Z,402.00
2023-05-14T04:58:06.096Z,402.00
2023-05-14T04:58:36.212Z,399.00
2023-05-14T04:59:06.332Z,400.00
2023-05-14T04:59:36.328Z,400.00
2023-05-14T05:00:06.331Z,400.00
2023-05-14T05:00:36.425Z,401.00
2023-05-14T05:01:06.584Z,399.00
2023-05-14T05:01:36.592Z,399.00
2023-05-14T05:02:06.567Z,399.00
2023-05-14T05:02:36.722Z,399.00
2023-05-14T05:03:06.778Z,399.00
2023-05-14T05:03:36.844Z,401.00
2023-05-14T05:04:06.928Z,399.00
2023-05-14T05:04:36.922Z,399.00
2023-05-14T05:05:06.916Z,400.00
2023-05-14T05:05:37.017Z,403.00
2023-05-14T05:06:07.136Z,404.00
2023-05-14T05:06:37.157Z,402.00
2023-05-14T05:07:07.280Z,401.00
2023-05-14T05:07:37.389Z,400.00
2023-05-14T05:08:07.525Z,400.00
2023-05-14T05:08:37.649Z,401.00
2023-05-14T05:09:07.618Z,400.00
2023-05-14T05:09:37.726Z,402.00
2023-05-14T05:10:07.745Z,401.00
2023-05-14T05:10:37.864Z,400.00
2023-05-14T05:11:07.970Z,399.00
2023-05-14T05:11:38.078Z,399.00
2023-05-14T05:12:08.187Z,400.00
2023-05-14T05:12:38.301Z,399.00
2023-05-14T05:13:08.419Z,400.00
2023-05-14T05:13:38.410Z,399.00
2023-05-14T05:14:08.393Z,400.00
2023-05-14T05:14:38.506Z,401.00
2023-05-14T05:15:08.615Z,401.00
2023-05-14T05:15:38.776Z,401.00
2023-05-14T05:16:08.808Z,401.00
2023-05-14T05:16:38.794Z,402.00
2023-05-14T05:17:08.906Z,402.00
2023-05-14T05:17:39.042Z,404.00
2023-05-14T05:18:09.109Z,402.00
2023-05-14T05:18:39.221Z,402.00
2023-05-14T05:19:09.201Z,402.00
2023-05-14T05:19:43.696Z,401.00
2023-05-14T05:20:09.208Z,401.00
2023-05-14T05:20:39.276Z,401.00
2023-05-14T05:21:09.379Z,401.00
2023-05-14T05:21:39.498Z,401.00
2023-05-14T05:22:09.629Z,402.00
2023-05-14T05:22:39.619Z,403.00
2023-05-14T05:23:09.656Z,404.00
2023-05-14T05:23:39.624Z,404.00
2023-05-14T05:24:09.747Z,403.00
2023-05-14T05:24:39.854Z,402.00
2023-05-14T05:25:09.952Z,401.00
2023-05-14T05:25:40.017Z,401.00
2023-05-14T05:26:10.118Z,400.00
2023-05-14T05:26:40.239Z,402.00
2023-05-14T05:27:10.360Z,403.00
2023-05-14T05:27:40.373Z,401.00
2023-05-14T05:28:10.485Z,401.00
2023-05-14T05:28:40.597Z,403.00
2023-05-14T05:29:10.703Z,404.00
2023-05-14T05:29:40.815Z,403.00
2023-05-14T05:30:10.929Z,405.00
2023-05-14T05:30:41.046Z,404.00
2023-05-14T05:31:11.191Z,404.00
2023-05-14T05:31:41.279Z,404.00
2023-05-14T05:32:11.333Z,401.00
2023-05-14T05:32:41.293Z,402.00
2023-05-14T05:33:11.376Z,400.00
2023-05-14T05:33:41.436Z,399.00
2023-05-14T05:34:11.517Z,401.00
2023-05-14T05:34:41.586Z,401.00
2023-05-14T05:35:11.657Z,402.00
2023-05-14T05:35:41.722Z,403.00
2023-05-14T05:36:11.815Z,403.00
2023-05-14T05:36:41.894Z,404.00
2023-05-14T05:37:11.962Z,405.00
2023-05-14T05:37:42.037Z,407.00
2023-05-14T05:38:12.127Z,407.00
2023-05-14T05:38:42.184Z,406.00
2023-05-14T05:39:12.256Z,406.00
2023-05-14T05:39:42.324Z,406.00
2023-05-14T05:40:12.399Z,405.00
2023-05-14T05:40:42.481Z,406.00
2023-05-14T05:41:12.570Z,405.00
2023-05-14T05:41:42.647Z,406.00
2023-05-14T05:42:12.736Z,406.00
2023-05-14T05:42:42.846Z,406.00
2023-05-14T05:43:12.952Z,405.00
2023-05-14T05:43:43.070Z,407.00
2023-05-14T05:44:13.184Z,406.00
2023-05-14T05:44:43.292Z,405.00
2023-05-14T05:45:13.414Z,406.00
2023-05-14T05:45:43.539Z,403.00
2023-05-14T05:46:13.592Z,403.00
2023-05-14T05:46:43.608Z,402.00
2023-05-14T05:47:13.616Z,403.00
2023-05-14T05:47:43.628Z,403.00
2023-05-14T05:48:13.728Z,402.00
2023-05-14T05:48:43.782Z,401.00
2023-05-14T05:49:13.890Z,399.00
2023-05-14T05:49:43.999Z,400.00
2023-05-14T05:50:14.147Z,402.00
2023-05-14T05:50:44.116Z,401.00
2023-05-14T05:51:14.239Z,402.00
2023-05-14T05:51:44.348Z,405.00
2023-05-14T05:52:14.363Z,405.00
2023-05-14T05:52:44.474Z,405.00
2023-05-14T05:53:14.620Z,405.00
2023-05-14T05:53:44.701Z,406.00
2023-05-14T05:54:14.807Z,407.00
2023-05-14T05:54:44.978Z,406.00
2023-05-14T05:55:14.962Z,405.00
2023-05-14T05:55:44.946Z,405.00
2023-05-14T05:56:15.057Z,404.00
2023-05-14T05:56:45.176Z,401.00
2023-05-14T05:57:15.178Z,402.00
2023-05-14T05:57:45.290Z,402.00
2023-05-14T05:58:15.397Z,399.00
2023-05-14T05:58:45.511Z,401.00
2023-05-14T05:59:15.499Z,400.00
2023-05-14T05:59:45.619Z,401.00
2023-05-14T06:00:15.727Z,405.00
2023-05-14T06:00:45.839Z,405.00
2023-05-14T06:01:15.966Z,405.00
2023-05-14T06:01:46.091Z,405.00
2023-05-14T06:02:16.089Z,405.00
2023-05-14T06:02:46.242Z,403.00
2023-05-14T06:03:16.302Z,404.00
2023-05-14T06:03:48.364Z,404.00
2023-05-14T06:04:16.287Z,404.00
2023-05-14T06:04:46.413Z,402.00
2023-05-14T06:05:16.469Z,402.00
2023-05-14T06:05:46.545Z,400.00
2023-05-14T06:06:16.566Z,400.00
2023-05-14T06:06:46.555Z,399.00
2023-05-14T06:07:16.540Z,399.00
2023-05-14T06:07:46.662Z,400.00
2023-05-14T06:08:16.763Z,402.00
2023-05-14T06:08:46.901Z,401.00
2023-05-14T06:09:16.990Z,400.00
2023-05-14T06:09:47.111Z,400.00
2023-05-14T06:10:17.215Z,399.00
2023-05-14T06:10:47.807Z,400.00
2023-05-14T06:11:17.441Z,399.00
2023-05-14T06:11:47.451Z,400.00
2023-05-14T06:12:17.541Z,402.00
2023-05-14T06:12:47.653Z,403.00
2023-05-14T06:13:17.774Z,402.00
2023-05-14T06:13:47.875Z,402.00
2023-05-14T06:14:17.987Z,402.00
2023-05-14T06:14:48.103Z,402.00
2023-05-14T06:15:18.210Z,402.00